• Join FlightAware (Why Join?)
  • Login
  • US Flag 
10:46AM EST


 

Airport Tracker/Info


-or-


 

Live Flight TrackerFlight Track Log ✈ KCE2 ✈ 09-May-2013 ✈ KALB - CYQB

Flight Track Log - Related Links

Times and Time Zones

All times are in EDT time to prevent confusion due to time zone crossing. See the KCE2 flight status page for this flight to view local times or setup timezone preferences in your user account.

Time Position Orientation Groundspeed Altitude Reporting Facility
EDT Latitude Longitude Course Direction KTS MPH feet Rate Location/Type
06:26PM 42.7319 -73.8081 169° South 163 188 1,500  Level Boston Center
06:26PM 42.7092 -73.8019 169° South 190 219 2,800 4,080 Climbing Boston Center
06:27PM 42.7414 -73.7039 66° East 275 316 8,500 4,440 Climbing Boston Center
06:28PM 42.8250 -73.6914 North 249 287 13,100 4,920 Climbing Boston Center
06:29PM 42.9167 -73.6819 North 310 357 18,400 3,120 Climbing Boston Center
06:30PM 43.0106 -73.6753 North 342 394 19,400 1,860 Climbing Boston Center
06:31PM 43.1400 -73.6608 North 397 457 22,200 1,380 Climbing Boston Center
06:37PM 43.7690 -73.5520 North 445 512 28,300 1,020 Climbing FlightAware
06:37PM 43.8440 -73.4970 28° Northeast 448 516 28,600 3,240 Climbing FlightAware
06:38PM 43.9270 -73.4330 29° Northeast 419 482 32,900 4,380 Climbing FlightAware
06:39PM 43.9950 -73.3810 29° Northeast 419 482 34,500 1,920 Climbing FlightAware
06:39PM 44.0720 -73.3230 28° Northeast 430 495 35,700 1,320 Climbing FlightAware
06:40PM 44.1460 -73.2670 28° Northeast 448 516 36,400 1,020 Climbing FlightAware
06:41PM 44.2260 -73.2050 29° Northeast 460 529 37,200 960 Climbing FlightAware
06:42PM 44.3170 -73.1360 28° Northeast 469 540 38,000 1,080 Climbing FlightAware
06:42PM 44.4070 -73.0660 29° Northeast 469 540 39,000 1,320 Climbing FlightAware
06:43PM 44.4820 -73.0080 29° Northeast 467 537 39,900 1,320 Climbing FlightAware
06:44PM 44.5440 -72.9600 29° Northeast 464 534 40,700 840 Climbing FlightAware
06:44PM 44.6180 -72.9030 29° Northeast 472 543 41,000 180 Climbing FlightAware
06:45PM 44.7200 -72.8230 29° Northeast 485 558 41,000  Level FlightAware
06:46PM 44.7990 -72.7620 29° Northeast 488 562 41,000  Level FlightAware
06:47PM 44.8900 -72.6900 29° Northeast 492 566 41,000  Level FlightAware
06:47PM 44.9680 -72.6290 29° Northeast 492 566 41,000 -480 Level FlightAware
06:48PM 45.0470 -72.5670 29° Northeast 476 548 40,400 -1,320 Descending FlightAware
06:49PM 45.1320 -72.5000 29° Northeast 468 539 39,200 -1,500 Descending FlightAware
06:49PM 45.2040 -72.4420 30° Northeast 458 527 38,300 -1,680 Descending FlightAware
06:50PM 45.2890 -72.3740 29° Northeast 454 522 36,900 -1,860 Descending FlightAware
06:51PM 45.3570 -72.3200 29° Northeast 454 522 35,700 -2,040 Descending FlightAware
06:51PM 45.4370 -72.2560 29° Northeast 467 537 34,200 -2,100 Descending FlightAware
06:52PM 45.5220 -72.1870 30° Northeast 481 554 32,800 -1,920 Descending FlightAware
06:53PM 45.5990 -72.1250 29° Northeast 473 544 31,500 -2,100 Descending FlightAware
06:54PM 45.6860 -72.0550 29° Northeast 465 535 29,900 -2,100 Descending FlightAware
06:54PM 45.7590 -71.9950 30° Northeast 462 532 28,600 -2,040 Descending FlightAware
06:55PM 45.8330 -71.9350 29° Northeast 460 529 27,200 -2,040 Descending FlightAware
06:56PM 45.9080 -71.8750 29° Northeast 454 522 25,900 -1,860 Descending FlightAware
06:56PM 45.9880 -71.8470 14° North 446 513 24,600 -2,100 Descending FlightAware
06:57PM 46.0900 -71.8270 North 443 510 22,800 -2,220 Descending FlightAware
06:58PM 46.1700 -71.8090 North 439 505 21,500 -1,980 Descending FlightAware
06:58PM 46.2490 -71.7890 10° North 435 501 20,200 -1,980 Descending FlightAware
06:59PM 46.3380 -71.7690 North 429 494 18,700 -1,980 Descending FlightAware
07:00PM 46.4140 -71.7450 12° North 420 483 17,400 -2,340 Descending FlightAware
07:01PM 46.4840 -71.6800 33° Northeast 396 456 15,400 -2,340 Descending FlightAware
07:01PM 46.5350 -71.6050 45° Northeast 386 444 14,100 -1,920 Descending FlightAware
07:02PM 46.5850 -71.5330 45° Northeast 382 440 12,900 -1,860 Descending FlightAware
07:03PM 46.6410 -71.4520 45° Northeast 381 438 11,500 -1,860 Descending FlightAware
07:03PM 46.6910 -71.3810 44° Northeast 372 428 10,300 -1,860 Descending FlightAware
07:04PM 46.7220 -71.3390 43° Northeast 356 410 9,500 -1,800 Descending FlightAware
07:04PM 46.7560 -71.2910 44° Northeast 328 377 8,700 -1,740 Descending FlightAware
07:05PM 46.7880 -71.2480 43° Northeast 313 360 7,800 -2,040 Descending FlightAware
07:05PM 46.8190 -71.2060 43° Northeast 297 342 6,700 -2,820 Descending FlightAware
07:06PM 46.8340 -71.1850 44° Northeast 299 344 5,700 -3,240 Descending FlightAware
07:06PM 46.8480 -71.1660 43° Northeast 291 335 5,100 -2,040 Descending FlightAware
07:06PM 46.8770 -71.1270 43° Northeast 266 306 4,200 -1,140 Descending FlightAware
07:07PM 46.8980 -71.0990 42° Northeast 230 265 4,100 -180 Descending FlightAware
07:07PM 46.9120 -71.0900 24° Northeast 216 249 4,100  Level FlightAware
07:07PM 46.9350 -71.1110 328° Northwest 206 237 4,100  Level FlightAware
07:08PM 46.9410 -71.1300 295° West 203 234 4,100  Level FlightAware
07:08PM 46.9270 -71.1670 241° Southwest 219 252 4,100 -120 Level FlightAware
07:09PM 46.9130 -71.1970 236° Southwest 221 254 4,000 -1,020 Descending FlightAware
07:09PM 46.8960 -71.2340 236° Southwest 219 252 3,200 -1,440 Descending FlightAware
07:10PM 46.8800 -71.2630 231° Southwest 216 249 2,700 -960 Descending FlightAware
07:10PM 46.8680 -71.2830 229° Southwest 209 241 2,500 -1,320 Descending FlightAware
07:10PM 46.8450 -71.3170 225° Southwest 184 212 1,500 -1,440 Descending FlightAware
07:11PM 46.8280 -71.3410 224° Southwest 164 189 1,000 -900 Descending FlightAware
07:11PM 46.8150 -71.3590 223° Southwest 156 180 700 -720 Descending FlightAware
07:12PM 46.8050 -71.3730 224° Southwest 138 159 500 -360 Descending FlightAware
07:12PM 46.7920 -71.3920 225° Southwest 135 155 400 -180 Descending FlightAware